Aviation Digital Data Service (ADDS)

Output produced by TAFs form (1711 UTC 26 July 2014)
found at http://aviationweather.gov/adds/tafs/
 
KMTJ 261141Z 2612/2712 14007KT P6SM FEW120 SCT200 
     FM261400 VRB04KT P6SM FEW120 SCT200 
     FM261900 34007KT P6SM VCTS SCT100CB BKN200 
     FM270200 14007KT P6SM SCT100 SCT200